Parker, Indiana
Current Conditions -  °F | °C
As of 1:13 PM on Monday 22 Dec 2014 (Local Time) from KMIE Reporting Station
Overcast Overcast  
Wind Chill: 33°   Ceiling: 1500
Heat Index: 40°   Visibility: 9mi
Dew Point: 33°   Wind: 10mph
Humidity: 77%   Direction: 140°SE
Pressure: 29.87"   Gusts: NA
Location:  40.2107°N, 85.182°W
Report Text: KMIE 221813Z 14009KT 9SM FEW011 BKN015 OVC070 04/01 A2987 RMK AO2 PRESFR T00440006
Loading
Personal Weather Stations






























Interactive Weather Map New forecast layout! Learn more

10-Day Weather Forecast

Advertisements
Track Severe Weather on mobile